CYFB

Iqaluit Airport

Iqaluit, Canada
METAR CYFB 162200Z 36005KT 6SM -SN SCT048 BKN100 M25/M28 A2973 RMK SC4AC2 SLP076
Observed Flight Rules
Jan-16 @ 22:00 UTC (41 minutes ago) Visual Flight Rules
Wind Visibility Clouds Conditions
360° at 5 knots 6 miles
  • Scattered at 4,800' AGL
  • Broken at 10,000' AGL
  • Light Snow
Temperatures Readings
Current -25°C / -13°F
Dewpoint -28°C / -18°F
Humidity 76%
Altimeter 29.73" Hg
Pressure 1007.6 hPa
Elevation 34
METAR CYFB 162200Z 36005KT 6SM -SN SCT048 BKN100 M25/M28 A2973 RMK SC4AC2 SLP076
Observed Flight Rules
Jan-16 @ 22:00 UTC
(41 minutes ago)
VFR
Wind Visibility
360° at 5 knots 6 miles
Clouds
  • Scattered at 4,800' AGL
  • Broken at 10,000' AGL
Conditions
  • Light Snow
Temperature Dewpoint
-25°C / -13°F -28°C / -18°F
Humidity Altimeter Pressure
76% 29.73" Hg 1007.6 hPa